Time;durP1;ratioP1;P1;durP2;ratioP2;P2;SDS_P1;SDS_P2;PMS_P1;PMS_P2;Temp;Humidity;BMP_temperature;BMP_pressure;BME280_temperature;BME280_humidity;BME280_pressure;Samples;Min_cycle;Max_cycle;Signal;HPM_P1;HPM_P2
2022/01/07 00:00:47;;;;;;;13.63;5.87;;;4.20;47.30;;;;;;4973062;28;20399;-72
2022/01/07 00:03:14;;;;;;;16.37;6.30;;;4.20;47.20;;;;;;4972529;28;20388;-72
2022/01/07 00:05:40;;;;;;;14.07;5.68;;;4.30;47.00;;;;;;4972792;28;20474;-72
2022/01/07 00:08:06;;;;;;;18.73;6.10;;;4.30;46.00;;;;;;4971694;28;20408;-72
2022/01/07 00:10:32;;;;;;;21.33;5.77;;;4.50;46.20;;;;;;4971609;28;20400;-72
2022/01/07 00:12:57;;;;;;;16.50;5.70;;;4.50;45.40;;;;;;4972893;28;20399;-71
2022/01/07 00:15:23;;;;;;;20.77;6.00;;;4.50;45.00;;;;;;4972659;28;20384;-70
2022/01/07 00:17:49;;;;;;;20.67;6.05;;;4.50;45.50;;;;;;4972665;28;20511;-71
2022/01/07 00:20:15;;;;;;;15.90;5.75;;;4.60;43.90;;;;;;4972306;28;20869;-72
2022/01/07 00:22:43;;;;;;;15.48;5.93;;;4.50;44.10;;;;;;4972748;28;20485;-72
2022/01/07 00:25:11;;;;;;;14.55;5.85;;;4.50;44.90;;;;;;4987218;28;20392;-70
2022/01/07 00:27:37;;;;;;;15.70;5.80;;;4.50;44.60;;;;;;4972163;28;20432;-71
2022/01/07 00:30:08;;;;;;;21.98;7.20;;;4.50;45.20;;;;;;4972615;28;20865;-71
2022/01/07 00:32:36;;;;;;;11.48;5.63;;;4.60;45.30;;;;;;4986251;28;21506;-70
2022/01/07 00:35:03;;;;;;;19.02;6.40;;;4.60;44.60;;;;;;4972277;28;20459;-71
2022/01/07 00:37:28;;;;;;;21.60;6.50;;;4.70;44.10;;;;;;4972197;28;20396;-71
2022/01/07 00:39:54;;;;;;;17.77;7.27;;;4.70;45.70;;;;;;4972214;28;20403;-71
2022/01/07 00:42:20;;;;;;;15.70;5.90;;;4.70;44.40;;;;;;4972193;28;20418;-71
2022/01/07 00:44:45;;;;;;;19.70;7.27;;;4.70;45.30;;;;;;4972140;28;20396;-71
2022/01/07 00:47:11;;;;;;;13.67;6.63;;;4.70;45.30;;;;;;4971424;28;20438;-71
2022/01/07 00:49:37;;;;;;;16.05;6.13;;;4.70;45.20;;;;;;4971849;28;20416;-71
2022/01/07 00:52:03;;;;;;;18.83;6.93;;;4.60;45.40;;;;;;4972147;28;20395;-72
2022/01/07 00:54:29;;;;;;;17.67;6.80;;;4.60;45.40;;;;;;4971834;28;20384;-72
2022/01/07 00:56:55;;;;;;;17.10;6.32;;;4.60;45.80;;;;;;4971608;28;20392;-71
2022/01/07 00:59:21;;;;;;;17.85;6.95;;;4.70;44.70;;;;;;4971792;28;20431;-71
2022/01/07 01:01:47;;;;;;;18.95;7.30;;;4.70;45.00;;;;;;4972533;28;20388;-72
2022/01/07 01:04:13;;;;;;;18.75;6.68;;;4.60;45.70;;;;;;4972921;28;20414;-72
2022/01/07 01:06:41;;;;;;;13.57;6.93;;;4.60;46.80;;;;;;4971866;28;20490;-71
2022/01/07 01:09:08;;;;;;;16.42;6.80;;;4.70;46.60;;;;;;4972216;28;20380;-72
2022/01/07 01:11:34;;;;;;;15.60;6.80;;;4.60;45.40;;;;;;4971810;28;20951;-71
2022/01/07 01:14:00;;;;;;;15.77;7.10;;;4.70;44.90;;;;;;4971709;28;20455;-71
2022/01/07 01:16:26;;;;;;;19.45;7.30;;;4.80;44.80;;;;;;4971347;28;20388;-73
2022/01/07 01:18:51;;;;;;;12.85;6.60;;;4.80;44.40;;;;;;4973067;28;20392;-71
2022/01/07 01:21:17;;;;;;;15.90;6.60;;;4.80;44.20;;;;;;4975369;28;20403;-71
2022/01/07 01:23:45;;;;;;;16.45;6.93;;;4.80;44.00;;;;;;4975687;28;20399;-71
2022/01/07 01:26:14;;;;;;;16.40;7.03;;;4.80;44.40;;;;;;4975070;28;20434;-71
2022/01/07 01:28:41;;;;;;;14.80;7.65;;;4.80;44.40;;;;;;4975638;28;20419;-72
2022/01/07 01:31:07;;;;;;;14.73;7.23;;;4.80;44.50;;;;;;4975616;28;20392;-72
2022/01/07 01:33:33;;;;;;;15.75;7.20;;;4.90;43.80;;;;;;4975696;28;20396;-70
2022/01/07 01:35:58;;;;;;;17.90;6.70;;;4.90;45.10;;;;;;4975540;28;20390;-72
2022/01/07 01:38:27;;;;;;;17.90;6.38;;;4.90;44.80;;;;;;4976570;28;20757;-72
2022/01/07 01:40:53;;;;;;;17.98;7.10;;;4.90;43.60;;;;;;4976639;28;20397;-71
2022/01/07 01:43:18;;;;;;;19.77;6.87;;;4.90;43.80;;;;;;4975997;28;20821;-71
2022/01/07 01:45:44;;;;;;;20.90;7.37;;;4.90;45.20;;;;;;4977287;28;20392;-72
2022/01/07 01:48:09;;;;;;;15.07;6.57;;;4.80;45.10;;;;;;4975936;28;20408;-71
2022/01/07 01:50:35;;;;;;;20.47;6.93;;;4.90;44.60;;;;;;4975224;28;20400;-71
2022/01/07 01:53:00;;;;;;;13.35;7.07;;;4.90;45.30;;;;;;4975016;28;20403;-72
2022/01/07 01:55:27;;;;;;;20.67;7.10;;;5.00;43.80;;;;;;4974965;28;20392;-71
2022/01/07 01:57:54;;;;;;;10.02;6.40;;;5.00;43.20;;;;;;4974918;28;20872;-71
2022/01/07 02:00:22;;;;;;;16.00;7.30;;;5.00;43.30;;;;;;4974776;28;20770;-70
2022/01/07 02:02:48;;;;;;;14.38;6.78;;;5.00;43.80;;;;;;4975127;28;20391;-71
2022/01/07 02:05:14;;;;;;;16.25;7.22;;;4.90;44.20;;;;;;4974847;28;20396;-72
2022/01/07 02:07:41;;;;;;;14.50;6.18;;;4.90;44.80;;;;;;4974678;28;20977;-71
2022/01/07 02:10:09;;;;;;;19.30;7.03;;;5.00;44.30;;;;;;4974951;28;20447;-71
2022/01/07 02:12:35;;;;;;;15.23;7.20;;;4.90;45.20;;;;;;4975242;28;20388;-72
2022/01/07 02:15:02;;;;;;;19.45;7.60;;;5.00;45.10;;;;;;4975435;28;20756;-72
2022/01/07 02:17:27;;;;;;;19.35;7.05;;;5.00;45.30;;;;;;4974502;28;20439;-72
2022/01/07 02:19:54;;;;;;;13.27;6.40;;;5.00;44.80;;;;;;4974970;28;20424;-71
2022/01/07 02:22:20;;;;;;;15.38;6.57;;;5.00;45.20;;;;;;4974546;28;20431;-72
2022/01/07 02:24:46;;;;;;;15.40;7.10;;;4.90;45.20;;;;;;4974556;28;20389;-71
2022/01/07 02:27:13;;;;;;;21.73;7.50;;;5.00;46.20;;;;;;4974403;28;20420;-71
2022/01/07 02:29:39;;;;;;;16.67;6.55;;;4.90;46.50;;;;;;4975335;28;20471;-70
2022/01/07 02:32:06;;;;;;;14.85;7.00;;;4.80;47.40;;;;;;4975143;28;20384;-71
2022/01/07 02:34:32;;;;;;;18.50;6.43;;;4.80;48.30;;;;;;4974434;28;20400;-71
2022/01/07 02:36:57;;;;;;;14.80;6.70;;;4.80;47.80;;;;;;4974257;28;20396;-71
2022/01/07 02:39:23;;;;;;;13.07;6.07;;;4.80;48.80;;;;;;4974595;28;20392;-72
2022/01/07 02:41:49;;;;;;;15.30;6.90;;;4.90;49.20;;;;;;4975787;28;20392;-72
2022/01/07 02:44:14;;;;;;;12.57;6.60;;;4.90;50.50;;;;;;4992557;28;20483;-72
2022/01/07 02:46:41;;;;;;;17.23;6.50;;;4.80;49.80;;;;;;4976728;28;20428;-72
2022/01/07 02:49:15;;;;;;;12.32;6.60;;;4.80;50.00;;;;;;4975569;28;20810;-72
2022/01/07 02:51:41;;;;;;;11.73;6.40;;;4.70;50.20;;;;;;4974167;28;20394;-71
2022/01/07 02:54:08;;;;;;;16.02;6.63;;;4.60;50.60;;;;;;4973794;28;20396;-71
2022/01/07 02:56:35;;;;;;;11.70;6.60;;;4.70;52.80;;;;;;4973563;28;20457;-70
2022/01/07 02:59:00;;;;;;;15.63;6.78;;;4.70;51.80;;;;;;4973534;28;20397;-71
2022/01/07 03:01:26;;;;;;;14.70;6.88;;;4.60;53.20;;;;;;4973717;28;20467;-71
2022/01/07 03:03:52;;;;;;;11.37;6.67;;;4.60;54.40;;;;;;4973601;28;20435;-71
2022/01/07 03:06:20;;;;;;;12.90;7.30;;;4.60;55.90;;;;;;4973295;28;20766;-71
2022/01/07 03:08:47;;;;;;;13.80;6.93;;;4.50;56.70;;;;;;4973468;28;20384;-71
2022/01/07 03:11:12;;;;;;;14.00;6.73;;;4.40;55.80;;;;;;4973804;28;20388;-71
2022/01/07 03:13:38;;;;;;;14.90;7.20;;;4.40;57.80;;;;;;4973452;28;20396;-71
2022/01/07 03:16:04;;;;;;;15.73;6.65;;;4.30;57.20;;;;;;4988400;28;20467;-71
2022/01/07 03:18:30;;;;;;;16.05;6.90;;;4.40;58.00;;;;;;4973494;28;20392;-72
2022/01/07 03:20:57;;;;;;;14.05;7.00;;;4.30;58.70;;;;;;4974174;28;20392;-72
2022/01/07 03:23:23;;;;;;;15.27;7.50;;;4.30;60.60;;;;;;4973602;28;20396;-72
2022/01/07 03:25:49;;;;;;;17.30;6.80;;;4.30;60.10;;;;;;4973350;28;20399;-71
2022/01/07 03:28:14;;;;;;;14.93;7.40;;;4.20;62.10;;;;;;4972681;28;20415;-71
2022/01/07 03:30:41;;;;;;;14.80;7.35;;;4.30;61.50;;;;;;4973314;28;20396;-71
2022/01/07 03:33:07;;;;;;;17.37;7.00;;;4.20;63.90;;;;;;4973155;28;20408;-71
2022/01/07 03:35:32;;;;;;;14.95;7.53;;;4.20;64.70;;;;;;4973094;28;20391;-71
2022/01/07 03:37:58;;;;;;;11.63;6.90;;;4.20;63.00;;;;;;4972773;28;20399;-72
2022/01/07 03:40:24;;;;;;;16.40;7.47;;;4.20;63.70;;;;;;4973267;28;20396;-72
2022/01/07 03:42:50;;;;;;;15.23;8.25;;;4.20;64.70;;;;;;4973424;28;20403;-72
2022/01/07 03:45:17;;;;;;;18.77;8.38;;;4.20;65.80;;;;;;4973939;28;20392;-73
2022/01/07 03:47:43;;;;;;;17.35;7.82;;;4.10;67.20;;;;;;4973234;28;20466;-69
2022/01/07 03:50:12;;;;;;;13.57;7.07;;;4.20;67.50;;;;;;4973028;28;20391;-70
2022/01/07 03:52:37;;;;;;;15.48;7.10;;;4.10;66.40;;;;;;4973019;28;20388;-70
2022/01/07 03:55:06;;;;;;;12.55;7.40;;;4.10;67.00;;;;;;4973111;28;20476;-70
2022/01/07 03:57:32;;;;;;;18.23;7.90;;;4.10;67.10;;;;;;4972650;28;20457;-71
2022/01/07 03:59:58;;;;;;;15.75;7.38;;;4.00;68.60;;;;;;4973002;28;20746;-71
2022/01/07 04:02:23;;;;;;;15.27;7.55;;;4.10;66.40;;;;;;4988306;28;20399;-70
2022/01/07 04:04:49;;;;;;;17.08;8.70;;;4.00;66.80;;;;;;4973608;28;20407;-71
2022/01/07 04:07:14;;;;;;;15.37;7.20;;;4.00;67.90;;;;;;4972675;28;20412;-71
2022/01/07 04:09:40;;;;;;;13.97;8.03;;;4.00;69.00;;;;;;4987673;28;20901;-70
2022/01/07 04:12:07;;;;;;;14.50;7.90;;;4.00;67.60;;;;;;4972675;28;20801;-71
2022/01/07 04:14:32;;;;;;;12.45;7.88;;;4.00;68.80;;;;;;4972637;28;20474;-71
2022/01/07 04:16:59;;;;;;;21.95;8.60;;;4.00;65.80;;;;;;4971972;28;20795;-70
2022/01/07 04:19:25;;;;;;;16.38;7.90;;;4.10;67.10;;;;;;4972495;28;20419;-71
2022/01/07 04:21:50;;;;;;;13.90;7.53;;;4.00;67.30;;;;;;4972448;28;20897;-70
2022/01/07 04:24:17;;;;;;;16.52;7.57;;;4.00;67.70;;;;;;4972525;28;20407;-72
2022/01/07 04:26:43;;;;;;;11.73;7.07;;;4.00;68.90;;;;;;4970701;28;20420;-72
2022/01/07 04:29:08;;;;;;;16.50;7.13;;;4.10;66.90;;;;;;4973405;28;20414;-71
2022/01/07 04:31:34;;;;;;;12.77;6.70;;;4.00;66.80;;;;;;4975296;28;20948;-71
2022/01/07 04:33:59;;;;;;;17.20;7.30;;;4.00;68.40;;;;;;4982465;28;20392;-71
2022/01/07 04:36:25;;;;;;;14.77;7.10;;;4.00;67.10;;;;;;4981276;28;20438;-71
2022/01/07 04:38:50;;;;;;;15.37;7.10;;;4.10;66.80;;;;;;4977436;28;20396;-71
2022/01/07 04:41:16;;;;;;;16.00;7.05;;;4.10;67.10;;;;;;4974097;28;20395;-71
2022/01/07 04:43:41;;;;;;;10.38;5.72;;;4.10;64.80;;;;;;4976944;28;20432;-71
2022/01/07 04:46:07;;;;;;;11.77;6.63;;;4.20;63.50;;;;;;4974975;28;20396;-71
2022/01/07 04:48:33;;;;;;;12.70;6.40;;;4.20;62.70;;;;;;4972612;28;20445;-71
2022/01/07 04:50:58;;;;;;;13.83;6.23;;;4.20;64.30;;;;;;4972714;28;20388;-71
2022/01/07 04:53:26;;;;;;;12.30;6.30;;;4.20;64.10;;;;;;4974941;28;20407;-71
2022/01/07 04:55:53;;;;;;;15.27;6.20;;;4.20;65.50;;;;;;4979848;28;20446;-71
2022/01/07 04:58:19;;;;;;;15.15;5.78;;;4.20;62.90;;;;;;4978970;28;20396;-72
2022/01/07 05:00:45;;;;;;;14.45;6.50;;;4.30;63.20;;;;;;4978736;28;20439;-72
2022/01/07 05:03:12;;;;;;;17.40;6.43;;;4.30;64.40;;;;;;4978548;28;20402;-71
2022/01/07 05:05:38;;;;;;;17.30;5.57;;;4.30;63.40;;;;;;4978741;28;20406;-71
2022/01/07 05:08:04;;;;;;;12.88;6.00;;;4.50;58.90;;;;;;4978428;28;20445;-72
2022/01/07 05:10:29;;;;;;;14.38;5.97;;;4.40;59.50;;;;;;4978850;28;20415;-72
2022/01/07 05:12:56;;;;;;;11.30;5.50;;;4.50;59.90;;;;;;4979114;28;20813;-72
2022/01/07 05:15:23;;;;;;;11.35;6.13;;;4.50;61.10;;;;;;4978413;28;20400;-71
2022/01/07 05:17:48;;;;;;;11.02;6.20;;;4.50;61.50;;;;;;4978612;28;20439;-71
2022/01/07 05:20:15;;;;;;;11.00;5.87;;;4.40;63.40;;;;;;4978271;28;20423;-71
2022/01/07 05:22:42;;;;;;;12.90;6.68;;;4.40;64.00;;;;;;4978772;28;20523;-71
2022/01/07 05:25:09;;;;;;;11.57;6.45;;;4.40;65.30;;;;;;4978453;28;20398;-71
2022/01/07 05:27:34;;;;;;;11.18;5.93;;;4.40;66.60;;;;;;4977980;28;20510;-72
2022/01/07 05:30:00;;;;;;;12.88;6.32;;;4.40;66.70;;;;;;4978396;28;20478;-71
2022/01/07 05:32:26;;;;;;;17.90;6.68;;;4.40;66.30;;;;;;4978569;28;20395;-71
2022/01/07 05:34:51;;;;;;;12.32;6.50;;;4.30;68.50;;;;;;4978811;28;20395;-71
2022/01/07 05:37:17;;;;;;;10.57;6.50;;;4.40;68.00;;;;;;4977985;28;20832;-72
2022/01/07 05:39:43;;;;;;;15.33;6.27;;;4.30;68.30;;;;;;4979141;28;20395;-71
2022/01/07 05:42:09;;;;;;;13.50;6.00;;;4.30;69.30;;;;;;4993390;28;20436;-71
2022/01/07 05:44:35;;;;;;;15.05;5.95;;;4.20;67.50;;;;;;4978443;28;20400;-72
2022/01/07 05:47:02;;;;;;;12.52;5.65;;;4.20;67.90;;;;;;4977764;28;20408;-72
2022/01/07 05:49:28;;;;;;;15.00;6.20;;;4.20;67.00;;;;;;4978328;28;20398;-72
2022/01/07 05:51:53;;;;;;;12.82;7.20;;;4.20;68.80;;;;;;4978363;28;20388;-71
2022/01/07 05:54:19;;;;;;;13.30;7.00;;;4.10;70.90;;;;;;4978203;28;20379;-71
2022/01/07 05:56:44;;;;;;;14.60;6.37;;;4.00;72.30;;;;;;4977725;28;20773;-70
2022/01/07 05:59:10;;;;;;;12.70;6.20;;;4.00;72.50;;;;;;4978176;28;20400;-70
2022/01/07 06:01:35;;;;;;;9.83;5.70;;;4.10;73.00;;;;;;4978179;28;20392;-71
2022/01/07 06:04:01;;;;;;;13.70;6.10;;;3.90;72.60;;;;;;4978481;28;20396;-71
2022/01/07 06:06:27;;;;;;;16.37;6.13;;;4.00;72.60;;;;;;4973836;28;20396;-71
2022/01/07 06:08:52;;;;;;;12.80;5.72;;;3.80;74.90;;;;;;4974986;28;20467;-71
2022/01/07 06:11:18;;;;;;;12.68;5.95;;;3.80;75.30;;;;;;4989823;28;20405;-71
2022/01/07 06:13:44;;;;;;;17.27;6.00;;;3.90;73.40;;;;;;4975023;28;20380;-71
2022/01/07 06:16:09;;;;;;;13.40;5.67;;;3.90;75.10;;;;;;4975388;28;20471;-71
2022/01/07 06:18:39;;;;;;;14.20;5.70;;;3.90;74.70;;;;;;4975263;28;20423;-73
2022/01/07 06:21:04;;;;;;;16.00;5.30;;;3.90;75.20;;;;;;4975434;28;20404;-71
2022/01/07 06:23:30;;;;;;;15.17;6.27;;;3.90;74.80;;;;;;4975895;28;20400;-71
2022/01/07 06:25:55;;;;;;;17.02;6.70;;;3.80;75.90;;;;;;4975240;28;20493;-71
2022/01/07 06:28:21;;;;;;;14.45;6.80;;;3.80;78.10;;;;;;4976837;28;20420;-72
2022/01/07 06:30:46;;;;;;;17.08;6.53;;;3.80;80.20;;;;;;4976357;28;20479;-70
2022/01/07 06:33:12;;;;;;;11.70;6.35;;;3.90;78.30;;;;;;4974767;28;20393;-72
2022/01/07 06:35:38;;;;;;;21.00;6.63;;;3.90;78.40;;;;;;4974933;28;20396;-72
2022/01/07 06:38:04;;;;;;;12.32;5.65;;;3.90;77.80;;;;;;4974372;28;20475;-71
2022/01/07 06:40:30;;;;;;;15.73;7.28;;;4.00;76.50;;;;;;4974913;28;20392;-70
2022/01/07 06:42:56;;;;;;;14.52;6.80;;;3.90;78.40;;;;;;4974519;28;20396;-70
2022/01/07 06:45:21;;;;;;;16.13;7.75;;;3.90;79.30;;;;;;4989372;28;20395;-71
2022/01/07 06:47:47;;;;;;;15.60;6.97;;;3.90;79.30;;;;;;4974021;28;20828;-71
2022/01/07 06:50:12;;;;;;;17.23;7.63;;;3.90;79.60;;;;;;4974497;28;20388;-70
2022/01/07 06:52:39;;;;;;;10.50;6.50;;;3.90;79.20;;;;;;4974642;28;20388;-71
2022/01/07 06:55:05;;;;;;;14.68;6.93;;;3.90;79.40;;;;;;4974610;28;20416;-71
2022/01/07 06:57:30;;;;;;;14.83;7.30;;;4.00;80.70;;;;;;4974823;28;20402;-71
2022/01/07 06:59:56;;;;;;;13.63;6.70;;;4.00;81.90;;;;;;4975065;28;20415;-70
2022/01/07 07:02:21;;;;;;;19.88;7.95;;;4.00;80.90;;;;;;4977659;28;20392;-71
2022/01/07 07:04:47;;;;;;;12.88;6.90;;;4.10;81.70;;;;;;4982149;28;20411;-71
2022/01/07 07:07:13;;;;;;;16.50;6.73;;;4.10;82.20;;;;;;4978556;28;20438;-72
2022/01/07 07:09:39;;;;;;;14.68;7.57;;;4.10;82.40;;;;;;4975240;28;20395;-71
2022/01/07 07:12:05;;;;;;;12.73;6.30;;;4.20;81.10;;;;;;4976702;28;20410;-72
2022/01/07 07:14:30;;;;;;;15.00;6.97;;;4.20;81.30;;;;;;4993127;28;20765;-72
2022/01/07 07:16:56;;;;;;;13.20;5.93;;;4.20;81.80;;;;;;4977512;28;20407;-72
2022/01/07 07:19:22;;;;;;;18.73;6.70;;;4.20;80.00;;;;;;4978222;28;20404;-71
2022/01/07 07:21:48;;;;;;;8.88;6.30;;;4.30;78.60;;;;;;4979114;28;20786;-73
2022/01/07 07:24:14;;;;;;;16.05;5.75;;;4.30;79.00;;;;;;4977314;28;20407;-71
2022/01/07 07:26:40;;;;;;;12.03;5.97;;;4.40;78.80;;;;;;4977278;28;20404;-72
2022/01/07 07:29:05;;;;;;;15.18;6.00;;;4.40;78.30;;;;;;4976057;28;20483;-72
2022/01/07 07:31:32;;;;;;;10.65;6.05;;;4.40;78.30;;;;;;4973994;28;20399;-72
2022/01/07 07:36:41;;;;;;;15.20;6.10;;;4.40;79.70;;;;;;4979971;28;20418;-72
2022/01/07 07:39:09;;;;;;;12.65;6.53;;;4.50;78.70;;;;;;4975881;28;20400;-73
2022/01/07 07:41:37;;;;;;;9.23;5.40;;;4.60;77.40;;;;;;4977461;28;20521;-72
2022/01/07 07:44:04;;;;;;;7.80;5.20;;;4.60;75.60;;;;;;4982157;28;20376;-72
2022/01/07 07:46:32;;;;;;;14.02;6.28;;;4.60;76.90;;;;;;4974997;28;20391;-72
2022/01/07 07:49:02;;;;;;;10.70;5.80;;;4.60;77.80;;;;;;4973993;28;20400;-71
2022/01/07 07:51:28;;;;;;;9.95;5.40;;;4.70;77.40;;;;;;4973408;28;20443;-71
2022/01/07 07:53:54;;;;;;;9.98;5.22;;;4.90;73.30;;;;;;4972878;28;20384;-71
2022/01/07 07:56:20;;;;;;;10.00;5.23;;;4.80;73.10;;;;;;4972728;28;20751;-70
2022/01/07 07:58:46;;;;;;;11.13;5.15;;;4.80;74.40;;;;;;4973326;28;20384;-71
2022/01/07 08:01:12;;;;;;;12.18;5.28;;;5.00;73.10;;;;;;4973145;28;20387;-71
2022/01/07 08:03:38;;;;;;;11.77;5.75;;;4.90;72.10;;;;;;4973745;28;20475;-72
2022/01/07 08:06:04;;;;;;;14.27;4.88;;;4.90;73.10;;;;;;4972890;28;20802;-71
2022/01/07 08:08:31;;;;;;;9.85;5.00;;;4.90;74.20;;;;;;4971564;28;20408;-71
2022/01/07 08:11:00;;;;;;;8.88;5.00;;;5.00;73.60;;;;;;4973085;28;20480;-73
2022/01/07 08:13:28;;;;;;;10.20;4.63;;;5.00;72.20;;;;;;4973247;28;20739;-72
2022/01/07 08:15:58;;;;;;;12.27;4.90;;;5.10;71.20;;;;;;4972875;28;20706;-71
2022/01/07 08:18:35;;;;;;;7.95;4.22;;;5.20;71.10;;;;;;4987165;28;20400;-72
2022/01/07 08:21:11;;;;;;;10.68;4.30;;;5.30;68.10;;;;;;4972920;28;20786;-72
2022/01/07 08:23:39;;;;;;;7.88;3.80;;;5.30;67.70;;;;;;4973108;28;20454;-72
2022/01/07 08:26:11;;;;;;;7.90;3.85;;;5.40;67.70;;;;;;4972378;28;20403;-72
2022/01/07 08:28:45;;;;;;;6.83;3.57;;;5.50;64.80;;;;;;4971707;28;20411;-72
2022/01/07 08:36:26;;;;;;;8.20;3.55;;;5.60;60.90;;;;;;4972931;28;20403;-72
2022/01/07 08:38:52;;;;;;;6.80;3.63;;;5.60;60.60;;;;;;4972698;28;20393;-72
2022/01/07 08:41:25;;;;;;;4.50;3.05;;;5.70;60.20;;;;;;4972627;28;20550;-71
2022/01/07 08:43:51;;;;;;;6.25;3.08;;;5.60;59.60;;;;;;4972546;28;20399;-72
2022/01/07 08:46:17;;;;;;;6.97;3.20;;;5.60;59.40;;;;;;4972063;28;20396;-72
2022/01/07 08:48:43;;;;;;;4.18;2.95;;;5.70;59.60;;;;;;4987059;28;20506;-72
2022/01/07 08:51:09;;;;;;;3.45;3.00;;;5.70;59.30;;;;;;4972065;28;20396;-71
2022/01/07 08:53:35;;;;;;;4.53;3.35;;;5.70;59.30;;;;;;4972737;28;20398;-70
2022/01/07 08:56:01;;;;;;;4.90;3.20;;;5.70;59.60;;;;;;4972047;28;20447;-71
2022/01/07 08:58:27;;;;;;;5.32;2.78;;;5.80;58.50;;;;;;4986944;28;20407;-71
2022/01/07 09:00:53;;;;;;;7.03;3.10;;;5.80;58.80;;;;;;4973522;28;20429;-72
2022/01/07 09:03:18;;;;;;;6.25;3.80;;;5.80;58.20;;;;;;4973259;28;20757;-72
2022/01/07 09:05:44;;;;;;;5.30;3.30;;;5.90;57.40;;;;;;4972787;28;20392;-71
2022/01/07 09:08:11;;;;;;;5.05;2.47;;;6.00;58.10;;;;;;4973012;28;20830;-72
2022/01/07 09:10:38;;;;;;;5.80;3.70;;;6.00;55.70;;;;;;4974462;28;20523;-72
2022/01/07 09:13:04;;;;;;;8.35;3.40;;;6.00;55.90;;;;;;4975404;28;20400;-71
2022/01/07 09:15:29;;;;;;;4.90;3.20;;;6.10;56.20;;;;;;4972208;28;20396;-72
2022/01/07 09:17:55;;;;;;;3.20;2.90;;;6.10;54.40;;;;;;4972166;28;20758;-72
2022/01/07 09:20:21;;;;;;;4.10;3.00;;;6.10;54.70;;;;;;4971937;28;20819;-72
2022/01/07 09:22:47;;;;;;;6.93;3.15;;;6.00;55.40;;;;;;4972030;28;20394;-72
2022/01/07 09:25:13;;;;;;;5.72;3.38;;;6.00;56.60;;;;;;4972045;28;20896;-72
2022/01/07 09:27:40;;;;;;;4.75;3.53;;;6.00;57.40;;;;;;4971765;28;20499;-71
2022/01/07 09:30:07;;;;;;;6.10;3.10;;;6.10;56.50;;;;;;4972676;28;20942;-71
2022/01/07 09:32:33;;;;;;;5.78;2.90;;;6.00;56.00;;;;;;4972621;28;20388;-72
2022/01/07 09:34:59;;;;;;;3.20;2.40;;;6.00;56.50;;;;;;4972898;28;20395;-72
2022/01/07 09:37:24;;;;;;;3.55;2.70;;;6.00;55.50;;;;;;4972307;28;20392;-71
2022/01/07 09:39:50;;;;;;;3.33;2.90;;;6.10;55.20;;;;;;4973781;28;20944;-72
2022/01/07 09:42:16;;;;;;;3.30;3.00;;;6.10;54.10;;;;;;4976396;28;20430;-72
2022/01/07 09:44:43;;;;;;;4.43;2.92;;;6.10;53.00;;;;;;4977164;28;20395;-73
2022/01/07 09:47:11;;;;;;;2.90;1.98;;;6.20;53.30;;;;;;4991625;28;20404;-72
2022/01/07 09:49:38;;;;;;;4.65;2.90;;;6.20;53.40;;;;;;4975523;28;20869;-71
2022/01/07 09:52:04;;;;;;;2.30;2.20;;;6.20;54.40;;;;;;4975622;28;20765;-71
2022/01/07 09:54:32;;;;;;;3.00;2.28;;;6.10;55.90;;;;;;4975802;28;20380;-71
2022/01/07 09:56:58;;;;;;;4.28;2.50;;;6.30;53.10;;;;;;4989654;28;20900;-72
2022/01/07 09:59:23;;;;;;;4.43;2.90;;;6.30;53.00;;;;;;4975193;28;20396;-71
2022/01/07 10:01:57;;;;;;;4.88;2.33;;;6.30;53.70;;;;;;4975337;28;20392;-72
2022/01/07 10:04:33;;;;;;;2.97;2.10;;;6.40;52.30;;;;;;4975234;28;20426;-71
2022/01/07 10:07:19;;;;;;;3.80;2.05;;;6.40;51.30;;;;;;4974633;28;20514;-72
2022/01/07 10:10:07;;;;;;;4.50;2.72;;;6.50;50.80;;;;;;4975077;28;20456;-71
2022/01/07 10:12:50;;;;;;;2.97;2.10;;;6.50;51.50;;;;;;4974930;28;20973;-71
2022/01/07 10:15:22;;;;;;;5.07;2.20;;;6.50;51.30;;;;;;4975553;28;20539;-71
2022/01/07 10:17:58;;;;;;;3.50;2.50;;;6.50;50.00;;;;;;4975262;28;20875;-72
2022/01/07 10:20:45;;;;;;;4.80;2.08;;;6.60;50.60;;;;;;4974927;28;20568;-71
2022/01/07 10:23:17;;;;;;;7.40;2.40;;;6.50;50.30;;;;;;4979447;28;20392;-71
2022/01/07 10:25:45;;;;;;;2.35;2.15;;;6.50;50.10;;;;;;4981998;28;20403;-72
2022/01/07 10:28:19;;;;;;;3.35;2.03;;;6.50;49.10;;;;;;4997859;23;20817;-70
2022/01/07 10:30:54;;;;;;;2.78;2.03;;;6.50;49.70;;;;;;5009025;28;20478;-70
2022/01/07 10:33:35;;;;;;;4.47;2.63;;;6.40;50.50;;;;;;4992553;28;20387;-70
2022/01/07 10:36:07;;;;;;;4.97;2.72;;;6.50;50.80;;;;;;4993929;28;20457;-70
2022/01/07 10:38:34;;;;;;;4.18;2.28;;;6.50;50.60;;;;;;4993499;28;20867;-69
2022/01/07 10:41:01;;;;;;;2.25;2.00;;;6.60;49.80;;;;;;4993595;28;20767;-71
2022/01/07 10:43:34;;;;;;;3.30;2.30;;;6.70;49.00;;;;;;4993301;28;20382;-69
2022/01/07 10:46:31;;;;;;;5.68;2.60;;;6.60;49.70;;;;;;4993811;28;20386;-70
2022/01/07 10:48:59;;;;;;;2.92;2.10;;;6.70;49.80;;;;;;4993111;28;20763;-69
2022/01/07 10:51:31;;;;;;;3.93;2.30;;;6.80;48.30;;;;;;4992550;28;20387;-71
2022/01/07 10:53:59;;;;;;;5.22;2.10;;;6.80;47.80;;;;;;4993389;28;20386;-69
2022/01/07 10:56:59;;;;;;;2.60;2.20;;;6.80;48.00;;;;;;4993242;28;20379;-69
2022/01/07 10:59:25;;;;;;;3.42;2.13;;;6.80;48.90;;;;;;4989340;28;20406;-69
2022/01/07 11:02:00;;;;;;;4.80;2.43;;;6.80;47.40;;;;;;4993177;28;20447;-69
2022/01/07 11:04:30;;;;;;;10.10;2.47;;;6.70;48.90;;;;;;4993260;28;20424;-70
2022/01/07 11:07:02;;;;;;;3.40;2.40;;;6.80;48.60;;;;;;4993127;28;20417;-70
2022/01/07 11:09:28;;;;;;;4.05;2.50;;;6.70;48.40;;;;;;4993210;28;20864;-73
2022/01/07 11:12:02;;;;;;;2.50;2.30;;;6.70;49.90;;;;;;4993141;28;20410;-70
2022/01/07 11:14:30;;;;;;;3.30;2.80;;;6.70;49.50;;;;;;4992783;28;20918;-71
2022/01/07 11:16:58;;;;;;;3.85;2.88;;;6.90;48.40;;;;;;4991467;28;20410;-70
2022/01/07 11:19:33;;;;;;;6.35;3.15;;;6.90;48.50;;;;;;4992899;28;20390;-70
2022/01/07 11:22:00;;;;;;;3.30;2.30;;;7.00;49.30;;;;;;4992847;28;20429;-70
2022/01/07 11:24:34;;;;;;;6.28;2.97;;;7.10;47.10;;;;;;4992382;28;20425;-69
2022/01/07 11:27:01;;;;;;;4.10;3.03;;;7.20;46.80;;;;;;4992266;28;20409;-71
2022/01/07 11:29:28;;;;;;;4.88;2.30;;;7.20;46.70;;;;;;4990945;28;20528;-70
2022/01/07 11:31:54;;;;;;;3.78;2.40;;;7.20;46.00;;;;;;4992753;28;20421;-69
2022/01/07 11:34:19;;;;;;;3.77;2.50;;;7.20;46.10;;;;;;4993084;28;20830;-69
2022/01/07 11:36:46;;;;;;;6.90;2.50;;;7.40;45.40;;;;;;4996143;28;20934;-73
2022/01/07 11:39:12;;;;;;;4.90;2.80;;;7.40;44.40;;;;;;4994864;28;20852;-70
2022/01/07 11:41:45;;;;;;;6.00;2.70;;;7.50;45.30;;;;;;4992660;28;20470;-71
2022/01/07 11:44:13;;;;;;;2.72;2.50;;;7.50;44.50;;;;;;4992174;28;20401;-70
2022/01/07 11:46:39;;;;;;;5.70;2.78;;;7.50;44.30;;;;;;4981995;28;20926;-69
2022/01/07 11:49:07;;;;;;;6.15;2.65;;;7.50;43.60;;;;;;4990654;28;20430;-71
2022/01/07 11:51:41;;;;;;;4.60;2.47;;;7.40;44.00;;;;;;4992359;28;20395;-70
2022/01/07 11:54:09;;;;;;;6.00;2.55;;;7.30;45.30;;;;;;4992723;28;20417;-69
2022/01/07 11:56:36;;;;;;;5.97;2.70;;;7.20;45.30;;;;;;4992505;28;20402;-69
2022/01/07 11:59:17;;;;;;;6.97;3.08;;;7.20;45.90;;;;;;4992391;28;20551;-71
2022/01/07 12:01:42;;;;;;;6.70;2.90;;;7.20;46.50;;;;;;4992699;28;20426;-71
2022/01/07 12:04:14;;;;;;;6.70;2.80;;;7.30;46.80;;;;;;4991720;28;20424;-71
2022/01/07 12:06:39;;;;;;;7.80;2.80;;;7.30;45.60;;;;;;4992530;28;20456;-71
2022/01/07 12:09:38;;;;;;;5.37;3.00;;;7.20;45.80;;;;;;4993224;28;20406;-70
2022/01/07 12:12:05;;;;;;;8.75;3.40;;;7.20;47.10;;;;;;4992674;28;20462;-72
2022/01/07 12:14:39;;;;;;;6.68;3.38;;;7.00;47.40;;;;;;4992969;28;20396;-70
2022/01/07 12:17:11;;;;;;;9.50;3.55;;;7.10;48.30;;;;;;4992113;28;20813;-70
2022/01/07 12:19:37;;;;;;;8.38;3.35;;;7.20;48.30;;;;;;4992438;28;20402;-70
2022/01/07 12:22:07;;;;;;;10.50;3.77;;;7.20;47.30;;;;;;4990969;28;20393;-70
2022/01/07 12:24:33;;;;;;;6.35;3.30;;;7.20;47.80;;;;;;4992267;28;20438;-71
2022/01/07 12:27:20;;;;;;;9.90;3.90;;;7.10;47.70;;;;;;4992784;28;20399;-70
2022/01/07 12:29:49;;;;;;;8.07;3.25;;;7.10;48.70;;;;;;4992411;28;20957;-71
2022/01/07 12:32:18;;;;;;;11.25;3.50;;;7.20;47.90;;;;;;4992430;28;20421;-70
2022/01/07 12:34:48;;;;;;;8.17;3.10;;;7.30;47.80;;;;;;4992286;28;20524;-69
2022/01/07 12:37:17;;;;;;;8.38;3.40;;;7.40;46.60;;;;;;4991808;28;20386;-71
2022/01/07 12:39:52;;;;;;;14.33;3.90;;;7.50;47.20;;;;;;4992161;28;20429;-70
2022/01/07 12:42:19;;;;;;;15.43;3.83;;;7.50;47.30;;;;;;4992857;28;20398;-70
2022/01/07 12:44:52;;;;;;;8.77;3.95;;;7.70;46.30;;;;;;4992559;28;20882;-73
2022/01/07 12:47:19;;;;;;;11.00;3.78;;;7.70;45.20;;;;;;4992055;28;20486;-71
2022/01/07 12:49:47;;;;;;;11.98;4.07;;;7.70;46.50;;;;;;4992062;28;20391;-71
2022/01/07 12:52:22;;;;;;;7.03;3.80;;;7.70;46.30;;;;;;4992018;28;20378;-71
2022/01/07 12:55:00;;;;;;;10.70;3.40;;;7.60;46.30;;;;;;4992019;28;20397;-70
2022/01/07 12:57:30;;;;;;;10.30;3.80;;;7.60;45.70;;;;;;4991777;28;20944;-72
2022/01/07 13:00:29;;;;;;;12.68;3.70;;;7.50;46.60;;;;;;4992477;28;20624;-70